createdAt,value
2023-11-23T00:00:32.898Z,3.70
2023-11-23T00:02:59.953Z,3.80
2023-11-23T00:05:30.079Z,3.90
2023-11-23T00:07:57.054Z,4.00
2023-11-23T00:10:24.118Z,4.10
2023-11-23T00:12:51.170Z,4.20
2023-11-23T00:15:18.256Z,4.20
2023-11-23T00:17:45.325Z,4.20
2023-11-23T00:20:12.464Z,4.20
2023-11-23T00:22:39.468Z,4.30
2023-11-23T00:25:06.590Z,4.20
2023-11-23T00:27:35.638Z,4.20
2023-11-23T00:30:03.339Z,4.10
2023-11-23T00:32:31.157Z,4.10
2023-11-23T00:34:58.196Z,4.10
2023-11-23T00:37:25.312Z,4.20
2023-11-23T00:39:52.476Z,4.20
2023-11-23T00:42:20.203Z,4.20
2023-11-23T00:44:47.234Z,4.20
2023-11-23T00:47:14.284Z,4.20
2023-11-23T00:49:41.565Z,4.00
2023-11-23T00:52:08.713Z,3.90
2023-11-23T00:54:39.395Z,3.90
2023-11-23T00:57:09.683Z,3.80
2023-11-23T00:59:36.690Z,3.60
2023-11-23T01:02:04.479Z,3.50
2023-11-23T01:04:31.517Z,3.50
2023-11-23T01:06:58.592Z,3.40
2023-11-23T01:09:25.539Z,3.20
2023-11-23T01:11:52.819Z,2.90
2023-11-23T01:14:19.878Z,2.90
2023-11-23T01:16:47.258Z,3.00
2023-11-23T01:19:14.576Z,3.10
2023-11-23T01:21:41.516Z,3.10
2023-11-23T01:24:09.831Z,3.20
2023-11-23T01:26:37.129Z,3.20
2023-11-23T01:29:04.121Z,3.00
2023-11-23T01:31:31.061Z,3.10
2023-11-23T01:33:59.118Z,3.20
2023-11-23T01:36:26.149Z,3.30
2023-11-23T01:38:53.753Z,3.40
2023-11-23T01:41:20.935Z,3.40
2023-11-23T01:43:48.087Z,3.50
2023-11-23T01:46:15.560Z,3.50
2023-11-23T01:48:43.674Z,3.50
2023-11-23T01:51:13.730Z,3.60
2023-11-23T01:53:41.417Z,3.70
2023-11-23T01:56:09.984Z,3.80
2023-11-23T01:58:37.053Z,3.70
2023-11-23T02:01:05.091Z,3.80
2023-11-23T02:03:32.247Z,4.00
2023-11-23T02:05:59.860Z,4.10
2023-11-23T02:08:27.292Z,4.10
2023-11-23T02:10:55.485Z,4.20
2023-11-23T02:13:22.933Z,4.30
2023-11-23T02:15:50.132Z,4.40
2023-11-23T02:18:17.311Z,4.30
2023-11-23T02:20:50.501Z,4.00
2023-11-23T02:23:17.774Z,3.80
2023-11-23T02:25:44.869Z,3.70
2023-11-23T02:28:11.887Z,3.50
2023-11-23T02:30:38.846Z,3.70
2023-11-23T02:33:05.946Z,3.70
2023-11-23T02:35:33.255Z,3.70
2023-11-23T02:38:00.346Z,3.70
2023-11-23T02:40:27.919Z,3.70
2023-11-23T02:42:56.137Z,3.60
2023-11-23T02:45:23.427Z,3.50
2023-11-23T02:47:50.891Z,3.20
2023-11-23T02:50:18.061Z,2.80
2023-11-23T02:52:45.144Z,2.70
2023-11-23T02:55:12.694Z,2.90
2023-11-23T02:57:39.929Z,3.20
2023-11-23T03:00:08.656Z,3.50
2023-11-23T03:02:35.771Z,3.80
2023-11-23T03:05:02.767Z,4.00
2023-11-23T03:07:29.808Z,4.10
2023-11-23T03:09:56.920Z,4.20
2023-11-23T03:12:24.700Z,4.20
2023-11-23T03:14:51.667Z,4.30
2023-11-23T03:17:20.538Z,4.30
2023-11-23T03:19:47.609Z,4.40
2023-11-23T03:22:14.588Z,4.40
2023-11-23T03:24:41.795Z,4.40
2023-11-23T03:27:10.715Z,4.40
2023-11-23T03:29:37.807Z,4.40
2023-11-23T03:32:04.978Z,4.40
2023-11-23T03:34:32.137Z,4.40
2023-11-23T03:36:59.218Z,4.50
2023-11-23T03:39:26.401Z,4.60
2023-11-23T03:41:53.522Z,4.60
2023-11-23T03:44:21.299Z,4.50
2023-11-23T03:46:48.394Z,4.40
2023-11-23T03:49:15.308Z,4.40
2023-11-23T03:51:42.509Z,4.40
2023-11-23T03:54:09.911Z,4.40
2023-11-23T03:56:39.246Z,4.30
2023-11-23T03:59:06.505Z,4.40
2023-11-23T04:01:34.484Z,4.40
2023-11-23T04:04:01.655Z,4.30
2023-11-23T04:06:29.298Z,4.30
2023-11-23T04:08:56.527Z,4.30
2023-11-23T04:11:24.837Z,4.30
2023-11-23T04:13:51.947Z,4.20
2023-11-23T04:16:19.271Z,4.10
2023-11-23T04:18:47.623Z,4.00
2023-11-23T04:21:15.161Z,3.80
2023-11-23T04:23:42.484Z,3.70
2023-11-23T04:26:09.733Z,3.60
2023-11-23T04:28:37.287Z,3.70
2023-11-23T04:31:04.731Z,3.80
2023-11-23T04:33:31.847Z,3.80
2023-11-23T04:35:59.158Z,3.70
2023-11-23T04:38:26.241Z,3.60
2023-11-23T04:40:53.281Z,3.40
2023-11-23T04:43:20.537Z,3.30
2023-11-23T04:45:47.876Z,3.10
2023-11-23T04:48:17.232Z,3.20
2023-11-23T04:50:44.449Z,3.30
2023-11-23T04:53:11.547Z,3.40
2023-11-23T04:55:40.439Z,3.30
2023-11-23T04:58:08.623Z,3.20
2023-11-23T05:00:37.318Z,3.10
2023-11-23T05:03:05.757Z,3.10
2023-11-23T05:05:32.893Z,3.10
2023-11-23T05:08:00.498Z,3.00
2023-11-23T05:10:27.758Z,2.80
2023-11-23T05:12:56.979Z,2.70
2023-11-23T05:15:24.175Z,2.70
2023-11-23T05:17:51.473Z,2.90
2023-11-23T05:20:19.523Z,2.80
2023-11-23T05:22:47.251Z,2.80
2023-11-23T05:25:15.292Z,2.90
2023-11-23T05:27:42.378Z,3.00
2023-11-23T05:30:09.995Z,3.00
2023-11-23T05:32:37.078Z,3.10
2023-11-23T05:35:04.332Z,3.00
2023-11-23T05:37:31.348Z,3.00
2023-11-23T05:39:59.397Z,2.90
2023-11-23T05:42:27.770Z,3.00
2023-11-23T05:44:56.766Z,3.10
2023-11-23T05:47:23.861Z,2.80
2023-11-23T05:49:50.924Z,2.70
2023-11-23T05:52:17.852Z,2.70
2023-11-23T05:54:45.663Z,2.80
2023-11-23T05:57:13.141Z,2.80
2023-11-23T05:59:40.077Z,2.90
2023-11-23T06:02:09.003Z,2.80
2023-11-23T06:04:36.226Z,2.90
2023-11-23T06:07:03.341Z,2.80
2023-11-23T06:09:31.453Z,2.90
2023-11-23T06:11:58.422Z,3.00
2023-11-23T06:14:25.399Z,2.90
2023-11-23T06:16:52.450Z,2.80
2023-11-23T06:19:19.725Z,2.90
2023-11-23T06:21:46.968Z,3.00
2023-11-23T06:24:14.121Z,3.00
2023-11-23T06:26:41.133Z,2.90
2023-11-23T06:29:08.179Z,2.70
2023-11-23T06:31:35.858Z,2.50
2023-11-23T06:34:02.876Z,2.70
2023-11-23T06:36:30.449Z,2.80
2023-11-23T06:38:57.625Z,2.80
2023-11-23T06:41:24.672Z,2.60
2023-11-23T06:43:53.059Z,2.50
2023-11-23T06:46:21.446Z,2.70
2023-11-23T06:48:48.635Z,2.80
2023-11-23T06:51:16.133Z,2.90
2023-11-23T06:53:48.146Z,2.90
2023-11-23T06:56:16.079Z,2.90
2023-11-23T06:58:44.114Z,2.90
2023-11-23T07:01:11.511Z,2.90
2023-11-23T07:03:43.052Z,3.00
2023-11-23T07:06:10.420Z,3.00
2023-11-23T07:08:38.578Z,3.20
2023-11-23T07:11:08.931Z,3.50
2023-11-23T07:13:36.121Z,3.50
2023-11-23T07:16:04.515Z,3.40
2023-11-23T07:18:32.018Z,3.40
2023-11-23T07:20:59.214Z,3.60
2023-11-23T07:23:26.481Z,3.90
2023-11-23T07:25:54.451Z,4.20
2023-11-23T07:28:26.738Z,4.20
2023-11-23T07:30:54.906Z,4.20
2023-11-23T07:33:21.999Z,4.10
2023-11-23T07:35:50.255Z,3.90
2023-11-23T07:38:19.529Z,3.80
2023-11-23T07:40:47.042Z,3.70
2023-11-23T07:43:14.039Z,3.70
2023-11-23T07:45:41.148Z,3.70
2023-11-23T07:48:15.524Z,3.60
2023-11-23T07:50:44.687Z,3.60
2023-11-23T07:53:11.807Z,3.70
2023-11-23T07:55:38.836Z,3.60
2023-11-23T07:58:06.137Z,3.80
2023-11-23T08:00:33.197Z,3.80
2023-11-23T08:03:00.320Z,4.00
2023-11-23T08:05:27.354Z,4.30
2023-11-23T08:07:55.081Z,4.70
2023-11-23T08:10:22.184Z,5.50
2023-11-23T08:12:49.119Z,5.90
2023-11-23T08:15:16.271Z,5.60
2023-11-23T08:17:54.570Z,5.40
2023-11-23T08:20:28.718Z,5.70
2023-11-23T08:22:55.803Z,6.50
2023-11-23T08:25:22.784Z,6.60
2023-11-23T08:27:49.916Z,6.30
2023-11-23T08:30:17.000Z,5.70
2023-11-23T08:32:44.255Z,5.40
2023-11-23T08:35:11.294Z,5.00
2023-11-23T08:37:38.615Z,4.70
2023-11-23T08:40:06.962Z,4.60
2023-11-23T08:42:34.825Z,4.70
2023-11-23T08:45:02.650Z,4.80
2023-11-23T08:47:29.765Z,4.80
2023-11-23T08:49:56.894Z,5.10
2023-11-23T08:52:23.916Z,5.60
2023-11-23T08:54:51.026Z,5.60
2023-11-23T08:57:18.439Z,5.70
2023-11-23T08:59:46.429Z,5.50
2023-11-23T09:02:20.066Z,5.40
2023-11-23T09:04:49.619Z,5.90
2023-11-23T09:07:17.282Z,6.20
2023-11-23T09:09:44.320Z,7.70
2023-11-23T09:12:11.264Z,10.20
2023-11-23T09:14:46.937Z,11.40
2023-11-23T09:17:17.274Z,10.30
2023-11-23T09:19:44.339Z,8.40
2023-11-23T09:22:12.262Z,7.40
2023-11-23T09:24:40.367Z,6.70
2023-11-23T09:27:07.806Z,6.40
2023-11-23T09:29:35.010Z,6.30
2023-11-23T09:32:04.579Z,6.10
2023-11-23T09:34:31.749Z,6.00
2023-11-23T09:36:58.974Z,6.00
2023-11-23T09:39:26.001Z,6.00
2023-11-23T09:41:55.206Z,6.00
2023-11-23T09:44:24.806Z,5.80
2023-11-23T09:46:52.150Z,5.80
2023-11-23T09:49:20.100Z,5.80
2023-11-23T09:51:48.594Z,5.80
2023-11-23T09:54:19.795Z,5.90
2023-11-23T09:56:47.174Z,5.80
2023-11-23T09:59:14.417Z,5.80
2023-11-23T10:01:44.624Z,5.80
2023-11-23T10:04:13.182Z,5.90
2023-11-23T10:06:41.302Z,6.10
2023-11-23T10:09:08.933Z,6.00
2023-11-23T10:11:35.895Z,6.00
2023-11-23T10:14:02.822Z,5.80
2023-11-23T10:16:35.670Z,5.90
2023-11-23T10:19:02.677Z,5.60
2023-11-23T10:21:29.932Z,5.70
2023-11-23T10:24:04.353Z,5.80
2023-11-23T10:26:31.446Z,5.70
2023-11-23T10:28:59.895Z,5.70
2023-11-23T10:31:26.868Z,5.80
2023-11-23T10:33:54.172Z,5.90
2023-11-23T10:36:24.809Z,6.00
2023-11-23T10:38:55.837Z,6.10
2023-11-23T10:41:23.204Z,6.10
2023-11-23T10:43:50.908Z,6.20
2023-11-23T10:46:21.988Z,6.10
2023-11-23T10:48:50.504Z,6.00
2023-11-23T10:51:18.134Z,6.00
2023-11-23T10:53:55.657Z,6.10
2023-11-23T10:56:24.938Z,6.10
2023-11-23T10:58:53.898Z,6.10
2023-11-23T11:01:23.383Z,6.10
2023-11-23T11:03:51.625Z,5.60
2023-11-23T11:06:23.012Z,5.60
2023-11-23T11:08:50.466Z,5.70
2023-11-23T11:11:18.694Z,5.70
2023-11-23T11:13:45.852Z,5.70
2023-11-23T11:16:13.976Z,5.80
2023-11-23T11:18:41.224Z,6.00
2023-11-23T11:21:17.608Z,6.00
2023-11-23T11:23:48.558Z,6.00
2023-11-23T11:26:22.945Z,5.60
2023-11-23T11:29:08.280Z,5.20
2023-11-23T11:31:39.078Z,5.30
2023-11-23T11:34:13.604Z,5.60
2023-11-23T11:36:40.731Z,5.70
2023-11-23T11:39:08.424Z,5.90
2023-11-23T11:41:38.056Z,6.10
2023-11-23T11:44:05.641Z,6.30
2023-11-23T11:46:35.120Z,6.20
2023-11-23T11:49:02.216Z,6.10
2023-11-23T11:51:30.664Z,5.90
2023-11-23T11:53:58.097Z,5.60
2023-11-23T11:56:25.156Z,5.80
2023-11-23T11:58:52.510Z,5.90
2023-11-23T12:01:20.249Z,5.40
2023-11-23T12:03:47.588Z,5.60
2023-11-23T12:06:14.684Z,5.50
2023-11-23T12:08:41.639Z,5.40
2023-11-23T12:11:08.691Z,5.40
2023-11-23T12:13:35.864Z,5.50
2023-11-23T12:16:04.093Z,5.90
2023-11-23T12:18:36.772Z,5.90
2023-11-23T12:21:08.354Z,5.90
2023-11-23T12:23:42.925Z,5.80
2023-11-23T12:26:10.962Z,5.90
2023-11-23T12:28:38.503Z,6.10
2023-11-23T12:31:05.497Z,6.20
2023-11-23T12:33:32.455Z,6.30
2023-11-23T12:35:59.841Z,6.30
2023-11-23T12:38:27.337Z,6.10
2023-11-23T12:40:54.621Z,6.10
2023-11-23T12:43:23.949Z,6.20
2023-11-23T12:45:51.162Z,6.40
2023-11-23T12:48:18.502Z,6.50
2023-11-23T12:50:45.482Z,6.40
2023-11-23T12:53:12.445Z,6.40
2023-11-23T12:55:39.565Z,6.40
2023-11-23T12:58:06.630Z,6.30
2023-11-23T13:00:37.651Z,6.30
2023-11-23T13:03:09.795Z,6.50
2023-11-23T13:05:37.311Z,6.50
2023-11-23T13:08:05.208Z,6.60
2023-11-23T13:10:32.212Z,6.50
2023-11-23T13:13:01.530Z,6.50
2023-11-23T13:15:31.195Z,6.50
2023-11-23T13:17:58.781Z,6.20
2023-11-23T13:20:26.260Z,6.30
2023-11-23T13:22:53.427Z,6.30
2023-11-23T13:25:22.108Z,6.40
2023-11-23T13:27:50.475Z,6.60
2023-11-23T13:30:18.396Z,6.70
2023-11-23T13:32:47.516Z,6.80
2023-11-23T13:35:14.783Z,6.90
2023-11-23T13:37:41.988Z,7.00
2023-11-23T13:40:10.624Z,7.00
2023-11-23T13:42:37.696Z,7.10
2023-11-23T13:45:08.302Z,6.90
2023-11-23T13:47:42.369Z,6.80
2023-11-23T13:50:10.553Z,6.90
2023-11-23T13:52:37.596Z,6.90
2023-11-23T13:55:10.256Z,6.90
2023-11-23T13:57:40.254Z,6.90
2023-11-23T14:00:20.466Z,6.90
2023-11-23T14:02:49.026Z,6.80
2023-11-23T14:05:16.313Z,6.70
2023-11-23T14:07:43.438Z,6.60
2023-11-23T14:10:11.045Z,6.60
2023-11-23T14:12:38.085Z,6.60
2023-11-23T14:15:05.542Z,6.50
2023-11-23T14:17:32.621Z,6.40
2023-11-23T14:20:02.382Z,6.50
2023-11-23T14:22:30.917Z,6.40
2023-11-23T14:25:02.486Z,6.40
2023-11-23T14:27:34.200Z,6.30
2023-11-23T14:30:05.345Z,6.10
2023-11-23T14:32:32.408Z,5.90
2023-11-23T14:34:59.647Z,5.80
2023-11-23T14:37:26.897Z,5.50
2023-11-23T14:39:54.033Z,5.40
2023-11-23T14:42:21.167Z,5.10
2023-11-23T14:44:48.388Z,5.10
2023-11-23T14:47:15.442Z,4.90
2023-11-23T14:49:42.507Z,4.70
2023-11-23T14:52:11.762Z,4.90
2023-11-23T14:54:39.393Z,4.90
2023-11-23T14:57:07.038Z,4.90
2023-11-23T14:59:37.251Z,5.00
2023-11-23T15:02:04.717Z,4.80
2023-11-23T15:04:32.698Z,4.60
2023-11-23T15:06:59.893Z,4.50
2023-11-23T15:09:30.563Z,4.60
2023-11-23T15:11:58.180Z,4.40
2023-11-23T15:14:28.356Z,4.00
2023-11-23T15:16:55.621Z,4.00
2023-11-23T15:19:23.141Z,4.10
2023-11-23T15:21:51.257Z,3.70
2023-11-23T15:24:18.744Z,3.50
2023-11-23T15:26:47.376Z,3.50
2023-11-23T15:29:16.127Z,3.40
2023-11-23T15:31:44.157Z,3.50
2023-11-23T15:34:11.826Z,3.90
2023-11-23T15:36:41.996Z,4.30
2023-11-23T15:39:12.632Z,4.70
2023-11-23T15:41:39.903Z,4.90
2023-11-23T15:44:08.602Z,5.00
2023-11-23T15:46:35.562Z,5.00
2023-11-23T15:49:06.390Z,5.10
2023-11-23T15:51:36.367Z,5.10
2023-11-23T15:54:07.264Z,5.30
2023-11-23T15:56:36.555Z,5.40
2023-11-23T15:59:07.460Z,5.40
2023-11-23T16:01:37.604Z,5.30
2023-11-23T16:04:08.014Z,5.30
2023-11-23T16:06:38.509Z,5.00
2023-11-23T16:09:10.532Z,4.70
2023-11-23T16:11:44.250Z,4.80
2023-11-23T16:14:11.810Z,4.90
2023-11-23T16:16:39.527Z,4.90
2023-11-23T16:19:06.552Z,4.90
2023-11-23T16:21:33.635Z,4.90
2023-11-23T16:24:00.732Z,5.00
2023-11-23T16:26:29.703Z,5.00
2023-11-23T16:29:01.471Z,5.10
2023-11-23T16:31:29.865Z,4.60
2023-11-23T16:33:57.771Z,4.50
2023-11-23T16:36:33.320Z,4.10
2023-11-23T16:39:08.017Z,4.40
2023-11-23T16:41:35.287Z,4.20
2023-11-23T16:44:02.556Z,4.20
2023-11-23T16:46:30.213Z,3.70
2023-11-23T16:48:57.362Z,3.40
2023-11-23T16:51:26.640Z,3.20
2023-11-23T16:53:55.533Z,3.60
2023-11-23T16:56:23.289Z,3.90
2023-11-23T16:58:50.703Z,4.10
2023-11-23T17:01:18.395Z,4.20
2023-11-23T17:03:47.680Z,4.20
2023-11-23T17:06:15.034Z,4.30
2023-11-23T17:08:42.097Z,4.20
2023-11-23T17:11:10.508Z,4.20
2023-11-23T17:13:37.864Z,4.30
2023-11-23T17:16:05.181Z,4.20
2023-11-23T17:18:32.267Z,4.20
2023-11-23T17:20:59.399Z,4.20
2023-11-23T17:23:26.732Z,4.10
2023-11-23T17:25:53.744Z,4.00
2023-11-23T17:28:24.760Z,4.00
2023-11-23T17:30:51.896Z,3.80
2023-11-23T17:33:21.038Z,3.80
2023-11-23T17:35:48.246Z,3.90
2023-11-23T17:38:17.571Z,3.90
2023-11-23T17:40:44.786Z,3.90
2023-11-23T17:43:11.779Z,4.00
2023-11-23T17:45:39.004Z,4.00
2023-11-23T17:48:06.206Z,4.00
2023-11-23T17:50:34.034Z,4.00
2023-11-23T17:53:00.999Z,4.00
2023-11-23T17:55:29.975Z,3.90
2023-11-23T17:57:57.320Z,3.90
2023-11-23T18:00:25.730Z,3.90
2023-11-23T18:02:52.917Z,3.90
2023-11-23T18:05:20.087Z,4.00
2023-11-23T18:07:47.419Z,4.00
2023-11-23T18:10:16.277Z,3.90
2023-11-23T18:12:44.072Z,3.90
2023-11-23T18:15:11.630Z,3.80
2023-11-23T18:17:39.208Z,3.50
2023-11-23T18:20:06.728Z,3.50
2023-11-23T18:22:33.650Z,3.60
2023-11-23T18:25:01.776Z,3.80
2023-11-23T18:27:29.080Z,3.90
2023-11-23T18:29:56.113Z,4.00
2023-11-23T18:32:23.387Z,4.00
2023-11-23T18:34:50.427Z,4.10
2023-11-23T18:37:17.431Z,4.20
2023-11-23T18:39:44.577Z,4.20
2023-11-23T18:42:13.081Z,4.20
2023-11-23T18:44:42.023Z,4.30
2023-11-23T18:47:09.141Z,4.30
2023-11-23T18:49:36.114Z,4.20
2023-11-23T18:52:04.267Z,4.20
2023-11-23T18:54:34.010Z,4.20
2023-11-23T18:57:01.000Z,4.20
2023-11-23T18:59:27.975Z,4.20
2023-11-23T19:01:55.916Z,4.10
2023-11-23T19:04:23.580Z,4.10
2023-11-23T19:06:54.362Z,4.00
2023-11-23T19:09:23.624Z,4.10
2023-11-23T19:11:50.866Z,4.20
2023-11-23T19:14:17.785Z,4.20
2023-11-23T19:16:45.054Z,4.10
2023-11-23T19:19:13.185Z,4.20
2023-11-23T19:21:40.710Z,4.20
2023-11-23T19:24:09.300Z,4.10
2023-11-23T19:26:36.978Z,3.90
2023-11-23T19:29:04.436Z,3.90
2023-11-23T19:31:32.919Z,3.90
2023-11-23T19:34:00.431Z,4.00
2023-11-23T19:36:28.454Z,4.00
2023-11-23T19:38:55.670Z,4.10
2023-11-23T19:41:25.800Z,4.20
2023-11-23T19:43:52.902Z,4.10
2023-11-23T19:46:20.669Z,4.00
2023-11-23T19:48:47.850Z,3.90
2023-11-23T19:51:20.017Z,3.90
2023-11-23T19:53:47.824Z,4.00
2023-11-23T19:56:14.865Z,3.80
2023-11-23T19:58:41.833Z,3.60
2023-11-23T20:01:08.891Z,3.40
2023-11-23T20:03:35.951Z,3.40
2023-11-23T20:06:04.149Z,3.50
2023-11-23T20:08:32.672Z,3.50
2023-11-23T20:11:00.015Z,3.20
2023-11-23T20:13:26.963Z,3.20
2023-11-23T20:15:54.016Z,3.20
2023-11-23T20:18:21.920Z,3.30
2023-11-23T20:20:48.866Z,3.30
2023-11-23T20:23:16.039Z,3.30
2023-11-23T20:25:43.424Z,3.20
2023-11-23T20:28:15.839Z,3.30
2023-11-23T20:30:42.967Z,3.60
2023-11-23T20:33:10.026Z,3.60
2023-11-23T20:35:38.090Z,3.70
2023-11-23T20:38:06.067Z,3.70
2023-11-23T20:40:33.577Z,3.70
2023-11-23T20:43:01.680Z,3.50
2023-11-23T20:45:29.456Z,3.50
2023-11-23T20:47:56.495Z,3.30
2023-11-23T20:50:26.337Z,3.00
2023-11-23T20:52:53.894Z,3.00
2023-11-23T20:55:21.076Z,3.10
2023-11-23T20:57:49.100Z,3.20
2023-11-23T21:00:18.174Z,3.30
2023-11-23T21:02:45.641Z,3.20
2023-11-23T21:05:13.259Z,3.50
2023-11-23T21:07:40.525Z,3.60
2023-11-23T21:10:09.901Z,3.60
2023-11-23T21:12:37.062Z,3.80
2023-11-23T21:15:05.485Z,4.00
2023-11-23T21:17:34.834Z,3.90
2023-11-23T21:20:01.985Z,3.80
2023-11-23T21:22:30.485Z,3.80
2023-11-23T21:24:57.579Z,4.00
2023-11-23T21:27:31.984Z,4.00
2023-11-23T21:30:02.626Z,3.90
2023-11-23T21:32:29.873Z,3.50
2023-11-23T21:34:56.831Z,3.40
2023-11-23T21:37:23.881Z,3.40
2023-11-23T21:39:50.852Z,3.50
2023-11-23T21:42:19.178Z,3.60
2023-11-23T21:44:46.182Z,3.50
2023-11-23T21:47:13.178Z,3.50
2023-11-23T21:49:41.403Z,3.30
2023-11-23T21:52:11.217Z,3.20
2023-11-23T21:54:44.133Z,3.40
2023-11-23T21:57:19.858Z,3.50
2023-11-23T21:59:46.862Z,3.40
2023-11-23T22:02:14.616Z,3.60
2023-11-23T22:04:44.148Z,3.70
2023-11-23T22:07:11.093Z,3.80
2023-11-23T22:09:38.572Z,3.90
2023-11-23T22:12:05.968Z,3.90
2023-11-23T22:14:33.005Z,3.80
2023-11-23T22:17:02.462Z,3.80
2023-11-23T22:19:30.070Z,3.90
2023-11-23T22:21:59.833Z,3.90
2023-11-23T22:24:27.633Z,4.00
2023-11-23T22:26:54.687Z,4.10
2023-11-23T22:29:21.932Z,4.10
2023-11-23T22:31:51.343Z,4.10
2023-11-23T22:34:18.791Z,4.10
2023-11-23T22:36:46.686Z,4.00
2023-11-23T22:39:14.931Z,4.10
2023-11-23T22:41:41.995Z,4.20
2023-11-23T22:44:10.594Z,4.30
2023-11-23T22:46:38.167Z,4.10
2023-11-23T22:49:05.276Z,4.00
2023-11-23T22:51:32.356Z,3.90
2023-11-23T22:53:59.383Z,4.00
2023-11-23T22:56:26.373Z,4.20
2023-11-23T22:58:53.380Z,4.20
2023-11-23T23:01:23.225Z,4.20
2023-11-23T23:03:50.656Z,4.30
2023-11-23T23:06:19.334Z,4.30
2023-11-23T23:08:47.368Z,4.40
2023-11-23T23:11:14.811Z,4.40
2023-11-23T23:13:41.750Z,4.30
2023-11-23T23:16:08.889Z,4.30
2023-11-23T23:18:36.101Z,4.50
2023-11-23T23:21:03.117Z,4.70
2023-11-23T23:23:30.130Z,4.90
2023-11-23T23:25:57.185Z,4.90
2023-11-23T23:28:31.402Z,4.90
2023-11-23T23:30:59.548Z,5.00
2023-11-23T23:33:26.733Z,5.10
2023-11-23T23:35:53.873Z,5.10
2023-11-23T23:38:20.871Z,5.00
2023-11-23T23:40:51.914Z,5.10
2023-11-23T23:43:19.197Z,5.10
2023-11-23T23:45:47.627Z,5.00
2023-11-23T23:48:14.672Z,5.00
2023-11-23T23:50:42.007Z,4.90
2023-11-23T23:53:09.049Z,4.80
2023-11-23T23:55:36.109Z,4.80
2023-11-23T23:58:05.562Z,4.90
